createdAt,value
2018-12-09T00:08:15.138Z,0.10
2018-12-09T00:10:51.329Z,0.00
2018-12-09T00:13:32.017Z,0.10
2018-12-09T00:16:06.489Z,0.10
2018-12-09T00:18:38.259Z,0.30
2018-12-09T00:21:09.961Z,0.10
2018-12-09T00:23:48.650Z,0.13
2018-12-09T00:26:22.796Z,0.27
2018-12-09T00:28:58.236Z,0.10
2018-12-09T00:31:36.245Z,0.33
2018-12-09T00:34:06.596Z,0.20
2018-12-09T00:36:38.721Z,0.10
2018-12-09T00:39:10.619Z,0.20
2018-12-09T00:41:44.962Z,0.10
2018-12-09T00:44:18.878Z,0.10
2018-12-09T00:46:53.156Z,0.37
2018-12-09T00:49:27.278Z,0.00
2018-12-09T00:51:58.883Z,0.20
2018-12-09T00:54:30.730Z,0.20
2018-12-09T00:57:05.813Z,0.20
2018-12-09T00:59:46.926Z,0.10
2018-12-09T01:02:18.760Z,0.10
2018-12-09T01:05:06.116Z,0.27
2018-12-09T01:07:40.129Z,0.33
2018-12-09T01:10:14.285Z,0.20
2018-12-09T01:12:46.126Z,0.53
2018-12-09T01:15:24.075Z,0.30
2018-12-09T01:17:55.705Z,0.23
2018-12-09T01:20:36.355Z,0.20
2018-12-09T01:23:08.317Z,0.17
2018-12-09T01:25:40.472Z,0.30
2018-12-09T01:28:15.852Z,0.20
2018-12-09T01:30:50.415Z,0.33
2018-12-09T01:33:20.824Z,0.27
2018-12-09T01:36:01.506Z,0.30
2018-12-09T01:38:34.837Z,0.40
2018-12-09T01:41:11.714Z,0.37
2018-12-09T01:43:45.979Z,0.30
2018-12-09T01:46:20.144Z,0.20
2018-12-09T01:48:56.536Z,0.30
2018-12-09T01:51:28.804Z,0.33
2018-12-09T01:54:16.403Z,0.23
2018-12-09T01:56:51.025Z,0.40
2018-12-09T01:59:23.325Z,0.13
2018-12-09T02:01:55.272Z,0.10
2018-12-09T02:04:25.512Z,0.47
2018-12-09T02:06:54.760Z,0.40
2018-12-09T02:09:31.425Z,0.20
2018-12-09T02:12:19.282Z,0.33
2018-12-09T02:14:50.832Z,0.20
2018-12-09T02:17:22.795Z,0.33
2018-12-09T02:19:55.084Z,0.30
2018-12-09T02:22:27.224Z,0.23
2018-12-09T02:24:58.692Z,0.10
2018-12-09T02:27:33.127Z,0.30
2018-12-09T02:30:11.523Z,0.20
2018-12-09T02:32:45.725Z,0.37
2018-12-09T02:35:15.489Z,0.20
2018-12-09T02:37:47.704Z,0.00
2018-12-09T02:43:19.729Z,0.50
2018-12-09T02:45:51.805Z,0.17
2018-12-09T02:48:21.840Z,0.37
2018-12-09T02:50:53.986Z,0.20
2018-12-09T02:56:20.806Z,0.30
2018-12-09T02:58:57.643Z,0.20
2018-12-09T03:01:29.013Z,0.23
2018-12-09T03:04:02.790Z,0.33
2018-12-09T03:06:34.433Z,0.20
2018-12-09T03:09:10.894Z,0.10
2018-12-09T03:11:42.986Z,0.30
2018-12-09T03:14:15.336Z,0.30
2018-12-09T03:16:52.459Z,0.10
2018-12-09T03:19:39.776Z,0.10
2018-12-09T03:22:11.508Z,0.20
2018-12-09T03:24:43.469Z,0.10
2018-12-09T03:27:15.491Z,0.30
2018-12-09T03:29:50.244Z,0.20
2018-12-09T03:32:22.548Z,0.20
2018-12-09T03:34:57.173Z,0.30
2018-12-09T03:37:37.620Z,0.10
2018-12-09T03:40:13.754Z,0.10
2018-12-09T03:42:51.492Z,0.27
2018-12-09T03:45:26.923Z,0.10
2018-12-09T03:47:59.347Z,0.20
2018-12-09T03:50:34.195Z,0.30
2018-12-09T03:56:06.018Z,0.50
2018-12-09T03:58:36.847Z,0.13
2018-12-09T04:01:06.208Z,0.37
2018-12-09T04:03:36.543Z,0.30
2018-12-09T04:06:19.836Z,0.37
2018-12-09T04:08:49.909Z,0.10
2018-12-09T04:11:32.931Z,0.30
2018-12-09T04:14:10.784Z,0.37
2018-12-09T04:16:42.524Z,0.50
2018-12-09T04:19:14.565Z,0.73
2018-12-09T04:21:51.164Z,0.30
2018-12-09T04:24:27.164Z,0.50
2018-12-09T04:26:58.804Z,0.83
2018-12-09T04:32:25.973Z,0.47
2018-12-09T04:34:57.867Z,0.60
2018-12-09T04:37:34.445Z,0.67
2018-12-09T04:43:01.316Z,0.40
2018-12-09T04:45:35.456Z,0.97
2018-12-09T04:48:10.656Z,0.50
2018-12-09T04:50:48.880Z,0.83
2018-12-09T04:53:26.681Z,0.50
2018-12-09T04:56:09.552Z,0.37
2018-12-09T04:58:51.577Z,0.60
2018-12-09T05:01:25.889Z,0.40
2018-12-09T05:03:59.928Z,0.40
2018-12-09T05:06:34.166Z,0.33
2018-12-09T05:09:06.095Z,0.20
2018-12-09T05:11:37.779Z,0.60
2018-12-09T05:14:10.000Z,0.40
2018-12-09T05:16:48.527Z,0.50
2018-12-09T05:19:20.422Z,0.10
2018-12-09T05:21:54.928Z,0.53
2018-12-09T05:24:28.837Z,0.40
2018-12-09T05:27:00.644Z,0.30
2018-12-09T05:29:31.855Z,0.20
2018-12-09T05:32:03.384Z,0.40
2018-12-09T05:34:35.184Z,0.40
2018-12-09T05:37:09.628Z,0.40
2018-12-09T05:39:47.818Z,0.27
2018-12-09T05:42:19.444Z,0.27
2018-12-09T05:44:53.795Z,0.30
2018-12-09T05:47:25.460Z,0.20
2018-12-09T05:49:55.679Z,0.30
2018-12-09T05:52:27.839Z,0.27
2018-12-09T05:54:59.189Z,0.13
2018-12-09T05:57:30.502Z,0.23
2018-12-09T06:00:00.614Z,0.30
2018-12-09T06:02:43.928Z,0.30
2018-12-09T06:08:08.069Z,0.30
2018-12-09T06:10:40.184Z,1.10
2018-12-09T06:13:10.316Z,0.70
2018-12-09T06:15:51.281Z,0.87
2018-12-09T06:18:22.730Z,0.80
2018-12-09T06:20:52.567Z,0.70
2018-12-09T06:23:26.227Z,0.80
2018-12-09T06:25:57.831Z,0.60
2018-12-09T06:28:29.657Z,0.70
2018-12-09T06:31:01.884Z,1.10
2018-12-09T06:33:33.892Z,0.50
2018-12-09T06:36:05.197Z,0.70
2018-12-09T06:38:36.419Z,1.40
2018-12-09T06:41:17.448Z,0.83
2018-12-09T06:43:49.480Z,0.50
2018-12-09T06:46:26.180Z,0.90
2018-12-09T06:49:01.123Z,0.90
2018-12-09T06:51:35.749Z,0.80
2018-12-09T06:54:07.141Z,0.67
2018-12-09T06:56:40.938Z,1.47
2018-12-09T06:59:12.380Z,1.80
2018-12-09T07:01:48.868Z,0.97
2018-12-09T07:07:00.881Z,1.10
2018-12-09T07:09:32.475Z,0.67
2018-12-09T07:12:02.744Z,0.77
2018-12-09T07:14:36.973Z,0.70
2018-12-09T07:17:15.280Z,0.60
2018-12-09T07:19:54.131Z,0.53
2018-12-09T07:22:28.261Z,0.87
2018-12-09T07:24:59.888Z,0.50
2018-12-09T07:27:36.251Z,0.40
2018-12-09T07:30:09.465Z,0.57
2018-12-09T07:32:47.541Z,0.60
2018-12-09T07:35:19.178Z,0.40
2018-12-09T07:37:49.211Z,0.57
2018-12-09T07:40:21.111Z,0.70
2018-12-09T07:42:55.221Z,0.60
2018-12-09T07:45:36.148Z,0.53
2018-12-09T07:48:10.641Z,0.67
2018-12-09T07:50:40.367Z,0.70
2018-12-09T07:53:18.940Z,0.50
2018-12-09T07:55:59.079Z,0.70
2018-12-09T07:58:35.562Z,0.43
2018-12-09T08:01:09.826Z,0.40
2018-12-09T08:03:44.664Z,0.40
2018-12-09T08:06:25.036Z,0.37
2018-12-09T08:09:00.918Z,0.60
2018-12-09T08:11:37.052Z,1.10
2018-12-09T08:14:11.237Z,0.47
2018-12-09T08:16:51.553Z,0.80
2018-12-09T08:19:31.683Z,0.93
2018-12-09T08:22:01.076Z,0.77
2018-12-09T08:24:30.347Z,0.83
2018-12-09T08:27:16.844Z,0.80
2018-12-09T08:29:48.432Z,1.00
2018-12-09T08:32:28.640Z,0.87
2018-12-09T08:35:03.866Z,0.70
2018-12-09T08:37:35.764Z,0.70
2018-12-09T08:43:06.911Z,0.40
2018-12-09T08:45:40.574Z,0.93
2018-12-09T08:48:12.359Z,0.77
2018-12-09T08:50:46.822Z,1.10
2018-12-09T08:53:20.656Z,0.77
2018-12-09T08:55:52.204Z,0.70
2018-12-09T08:58:21.467Z,1.00
2018-12-09T09:00:53.604Z,0.70
2018-12-09T09:03:33.684Z,0.40
2018-12-09T09:06:03.055Z,0.50
2018-12-09T09:11:06.831Z,0.27
2018-12-09T09:13:44.734Z,0.40
2018-12-09T09:16:16.500Z,0.30
2018-12-09T09:18:52.905Z,0.30
2018-12-09T09:21:27.270Z,0.37
2018-12-09T09:24:05.104Z,0.40
2018-12-09T09:26:39.200Z,0.20
2018-12-09T09:29:13.463Z,0.70
2018-12-09T09:31:44.881Z,0.60
2018-12-09T09:37:09.555Z,0.40
2018-12-09T09:39:46.039Z,0.30
2018-12-09T09:42:24.149Z,0.47
2018-12-09T09:44:58.564Z,0.30
2018-12-09T09:47:29.909Z,0.40
2018-12-09T09:53:04.681Z,0.87
2018-12-09T09:55:34.774Z,0.47
2018-12-09T09:58:09.417Z,0.30
2018-12-09T10:00:43.181Z,0.60
2018-12-09T10:03:17.333Z,0.53
2018-12-09T10:05:53.487Z,0.80
2018-12-09T10:08:25.300Z,0.80
2018-12-09T10:13:29.624Z,0.73
2018-12-09T10:16:05.088Z,0.60
2018-12-09T10:18:34.296Z,1.00
2018-12-09T10:21:08.106Z,0.70
2018-12-09T10:23:46.177Z,0.90
2018-12-09T10:26:20.560Z,0.80
2018-12-09T10:28:52.120Z,1.33
2018-12-09T10:31:25.808Z,1.03
2018-12-09T10:33:57.539Z,0.77
2018-12-09T10:36:27.345Z,1.03
2018-12-09T10:39:01.896Z,1.30
2018-12-09T10:41:33.695Z,1.00
2018-12-09T10:44:08.240Z,1.20
2018-12-09T10:46:39.940Z,1.00
2018-12-09T10:49:16.575Z,0.80
2018-12-09T10:51:54.249Z,1.00
2018-12-09T10:57:26.285Z,1.00
2018-12-09T10:59:55.621Z,1.37
2018-12-09T11:02:33.290Z,1.00
2018-12-09T11:05:05.092Z,1.40
2018-12-09T11:07:35.034Z,1.20
2018-12-09T11:10:05.645Z,2.60
2018-12-09T11:12:37.624Z,1.50
2018-12-09T11:15:14.284Z,1.20
2018-12-09T11:17:44.263Z,0.73
2018-12-09T11:20:18.194Z,2.10
2018-12-09T11:22:49.859Z,1.60
2018-12-09T11:25:23.888Z,1.50
2018-12-09T11:27:55.340Z,1.57
2018-12-09T11:30:27.318Z,1.50
2018-12-09T11:33:04.998Z,1.83
2018-12-09T11:35:42.860Z,1.03
2018-12-09T11:38:12.658Z,1.20
2018-12-09T11:40:53.629Z,1.30
2018-12-09T11:43:25.665Z,0.80
2018-12-09T11:46:00.315Z,0.90
2018-12-09T11:48:36.583Z,0.87
2018-12-09T11:54:09.393Z,0.83
2018-12-09T11:59:45.520Z,1.17
2018-12-09T12:02:20.066Z,0.70
2018-12-09T12:04:50.188Z,0.57
2018-12-09T12:07:26.595Z,0.93
2018-12-09T12:09:58.220Z,0.90
2018-12-09T12:18:31.062Z,1.03
2018-12-09T12:21:08.924Z,1.00
2018-12-09T12:23:44.171Z,1.20
2018-12-09T12:26:16.291Z,0.90
2018-12-09T12:28:48.039Z,1.00
2018-12-09T12:31:22.027Z,1.30
2018-12-09T12:33:51.420Z,1.53
2018-12-09T12:36:23.361Z,1.03
2018-12-09T12:38:57.859Z,1.60
2018-12-09T12:41:29.598Z,1.70
2018-12-09T12:44:04.133Z,1.40
2018-12-09T12:46:42.190Z,1.30
2018-12-09T12:49:14.083Z,1.30
2018-12-09T12:51:49.069Z,1.73
2018-12-09T12:54:24.104Z,1.27
2018-12-09T12:57:02.427Z,1.20
2018-12-09T12:59:33.916Z,1.30
2018-12-09T13:02:07.423Z,1.20
2018-12-09T13:04:41.444Z,1.13
2018-12-09T13:07:15.345Z,1.67
2018-12-09T13:09:46.991Z,1.40
2018-12-09T13:12:20.871Z,1.00
2018-12-09T13:14:52.443Z,2.03
2018-12-09T13:17:29.079Z,1.47
2018-12-09T13:20:03.691Z,1.20
2018-12-09T13:22:36.063Z,1.40
2018-12-09T13:25:10.613Z,1.30
2018-12-09T13:27:42.443Z,1.40
2018-12-09T13:30:14.608Z,1.30
2018-12-09T13:32:46.469Z,1.53
2018-12-09T13:35:20.211Z,1.43
2018-12-09T13:37:54.421Z,1.40
2018-12-09T13:40:28.926Z,1.70
2018-12-09T13:43:03.028Z,0.87
2018-12-09T13:45:36.788Z,1.10
2018-12-09T13:48:08.523Z,1.57
2018-12-09T13:50:38.808Z,1.53
2018-12-09T13:53:10.884Z,1.47
2018-12-09T13:55:47.664Z,1.07
2018-12-09T13:58:18.989Z,1.10
2018-12-09T14:00:51.195Z,1.17
2018-12-09T14:03:23.552Z,1.20
2018-12-09T14:05:55.419Z,0.97
2018-12-09T14:08:25.384Z,1.10
2018-12-09T14:10:56.675Z,0.70
2018-12-09T14:13:31.167Z,1.33
2018-12-09T14:16:07.334Z,1.07
2018-12-09T14:18:42.768Z,1.97
2018-12-09T14:21:22.901Z,0.83
2018-12-09T14:23:55.163Z,0.90
2018-12-09T14:29:38.515Z,1.13
2018-12-09T14:32:19.176Z,0.90
2018-12-09T14:37:46.857Z,0.63
2018-12-09T14:40:23.388Z,0.80
2018-12-09T14:42:57.837Z,0.87
2018-12-09T14:45:37.943Z,1.77
2018-12-09T14:48:13.487Z,1.23
2018-12-09T14:50:45.167Z,1.73
2018-12-09T14:53:21.631Z,0.80
2018-12-09T14:56:01.876Z,1.50
2018-12-09T14:58:38.262Z,1.37
2018-12-09T15:01:18.756Z,0.70
2018-12-09T15:03:53.027Z,1.83
2018-12-09T15:06:31.265Z,1.43
2018-12-09T15:09:06.528Z,1.40
2018-12-09T15:11:42.881Z,1.30
2018-12-09T15:14:29.794Z,1.27
2018-12-09T15:17:06.142Z,1.67
2018-12-09T15:19:42.610Z,1.17
2018-12-09T15:22:19.460Z,1.23
2018-12-09T15:24:53.334Z,1.60
2018-12-09T15:27:25.156Z,1.70
2018-12-09T15:29:56.751Z,1.30
2018-12-09T15:32:34.542Z,1.67
2018-12-09T15:35:06.772Z,1.80
2018-12-09T15:37:44.820Z,1.90
2018-12-09T15:40:21.552Z,1.20
2018-12-09T15:42:57.039Z,1.33
2018-12-09T15:48:31.104Z,1.10
2018-12-09T15:51:03.232Z,1.13
2018-12-09T15:53:34.664Z,1.13
2018-12-09T15:58:56.751Z,0.70
2018-12-09T16:01:35.309Z,0.67
2018-12-09T16:04:09.435Z,0.80
2018-12-09T16:06:49.785Z,0.37
2018-12-09T16:09:25.195Z,0.40
2018-12-09T16:12:03.638Z,0.67
2018-12-09T16:14:35.265Z,0.40
2018-12-09T16:17:05.324Z,0.37
2018-12-09T16:19:37.372Z,0.50
2018-12-09T16:22:09.194Z,0.30
2018-12-09T16:24:44.016Z,0.20
2018-12-09T16:27:24.189Z,0.20
2018-12-09T16:29:56.337Z,0.27
2018-12-09T16:32:25.376Z,0.50
2018-12-09T16:34:55.437Z,0.20
2018-12-09T16:37:42.110Z,0.50
2018-12-09T16:40:18.375Z,0.43
2018-12-09T16:42:50.202Z,0.47
2018-12-09T16:45:22.563Z,0.33
2018-12-09T16:47:56.653Z,0.60
2018-12-09T16:50:28.472Z,0.60
2018-12-09T16:53:00.211Z,0.30
2018-12-09T16:55:40.264Z,0.57
2018-12-09T16:58:12.316Z,0.60
2018-12-09T17:00:45.991Z,0.93
2018-12-09T17:03:15.854Z,0.83
2018-12-09T17:05:52.341Z,0.70
2018-12-09T17:08:23.964Z,0.73
2018-12-09T17:11:10.466Z,0.97
2018-12-09T17:13:42.195Z,1.10
2018-12-09T17:16:16.261Z,1.07
2018-12-09T17:18:54.215Z,0.90
2018-12-09T17:21:25.877Z,0.80
2018-12-09T17:24:00.112Z,0.90
2018-12-09T17:26:29.767Z,0.70
2018-12-09T17:29:05.346Z,0.90
2018-12-09T17:31:34.385Z,0.80
2018-12-09T17:34:04.529Z,1.03
2018-12-09T17:36:40.228Z,0.90
2018-12-09T17:39:14.396Z,1.40
2018-12-09T17:41:48.403Z,1.20
2018-12-09T17:44:20.033Z,1.20
2018-12-09T17:46:52.391Z,0.63
2018-12-09T17:49:24.001Z,1.07
2018-12-09T17:51:56.112Z,0.80
2018-12-09T17:54:30.991Z,1.23
2018-12-09T17:57:02.896Z,0.97
2018-12-09T17:59:39.364Z,0.80
2018-12-09T18:02:10.682Z,1.10
2018-12-09T18:04:45.157Z,0.93
2018-12-09T18:07:25.612Z,0.90
2018-12-09T18:09:59.720Z,0.90
2018-12-09T18:12:31.376Z,0.93
2018-12-09T18:15:02.949Z,1.03
2018-12-09T18:17:43.435Z,1.10
2018-12-09T18:20:14.844Z,1.00
2018-12-09T18:22:52.695Z,0.93
2018-12-09T18:25:27.961Z,1.07
2018-12-09T18:27:57.428Z,1.37
2018-12-09T18:30:27.621Z,0.80
2018-12-09T18:33:02.338Z,0.97
2018-12-09T18:35:32.141Z,0.90
2018-12-09T18:38:06.788Z,1.00
2018-12-09T18:40:39.148Z,1.40
2018-12-09T18:43:11.073Z,1.23
2018-12-09T18:45:42.560Z,1.87
2018-12-09T18:48:16.791Z,1.53
2018-12-09T18:56:53.103Z,1.57
2018-12-09T19:02:30.150Z,1.90
2018-12-09T19:05:08.176Z,1.70
2018-12-09T19:07:39.700Z,1.80
2018-12-09T19:10:16.288Z,1.87
2018-12-09T19:13:07.011Z,2.17
2018-12-09T19:15:46.942Z,2.00
2018-12-09T19:18:23.575Z,2.10
2018-12-09T19:21:00.089Z,2.27
2018-12-09T19:23:34.069Z,1.83
2018-12-09T19:26:12.115Z,2.03
2018-12-09T19:28:43.925Z,1.90
2018-12-09T19:31:15.939Z,2.20
2018-12-09T19:33:51.406Z,2.00
2018-12-09T19:36:26.571Z,1.60
2018-12-09T19:38:58.100Z,1.60
2018-12-09T19:41:33.738Z,1.90
2018-12-09T19:44:07.784Z,1.87
2018-12-09T19:46:38.378Z,1.57
2018-12-09T19:49:12.807Z,1.73
2018-12-09T19:51:50.491Z,1.60
2018-12-09T19:54:25.696Z,1.70
2018-12-09T19:57:03.778Z,1.80
2018-12-09T19:59:44.171Z,1.60
2018-12-09T20:02:18.700Z,2.17
2018-12-09T20:04:50.201Z,1.40
2018-12-09T20:07:26.684Z,1.80
2018-12-09T20:09:58.504Z,1.47
2018-12-09T20:12:33.964Z,1.23
2018-12-09T20:15:06.531Z,1.20
2018-12-09T20:17:41.084Z,1.50
2018-12-09T20:23:03.184Z,1.20
2018-12-09T20:25:51.418Z,1.10
2018-12-09T20:28:23.184Z,1.20
2018-12-09T20:30:57.983Z,1.30
2018-12-09T20:33:31.687Z,1.17
2018-12-09T20:36:11.941Z,1.57
2018-12-09T20:38:44.060Z,1.30
2018-12-09T20:41:19.009Z,1.17
2018-12-09T20:43:53.765Z,1.20
2018-12-09T20:46:23.619Z,1.20
2018-12-09T20:48:58.352Z,0.93
2018-12-09T20:51:26.598Z,0.93
2018-12-09T20:54:01.136Z,1.10
2018-12-09T20:56:31.241Z,1.47
2018-12-09T20:59:05.958Z,1.10
2018-12-09T21:01:37.372Z,0.93
2018-12-09T21:04:09.539Z,1.20
2018-12-09T21:06:50.333Z,1.40
2018-12-09T21:09:24.839Z,1.00
2018-12-09T21:11:56.844Z,1.27
2018-12-09T21:14:32.268Z,0.53
2018-12-09T21:17:03.923Z,1.20
2018-12-09T21:19:33.997Z,0.97
2018-12-09T21:22:04.164Z,1.13
2018-12-09T21:24:38.748Z,1.50
2018-12-09T21:27:10.291Z,1.30
2018-12-09T21:29:51.031Z,1.03
2018-12-09T21:32:25.654Z,1.23
2018-12-09T21:34:57.215Z,1.00
2018-12-09T21:37:36.722Z,1.27
2018-12-09T21:40:08.963Z,1.30
2018-12-09T21:42:43.221Z,1.40
2018-12-09T21:45:14.546Z,1.40
2018-12-09T21:47:44.524Z,1.20
2018-12-09T21:50:19.133Z,1.40
2018-12-09T21:52:57.635Z,1.30
2018-12-09T21:58:31.603Z,1.53
2018-12-09T22:01:03.114Z,1.50
2018-12-09T22:03:35.015Z,1.47
2018-12-09T22:06:06.386Z,1.30
2018-12-09T22:14:43.031Z,1.40
2018-12-09T22:17:15.185Z,1.63
2018-12-09T22:19:51.106Z,2.20
2018-12-09T22:22:22.575Z,1.70
2018-12-09T22:27:53.161Z,1.10
2018-12-09T22:30:24.429Z,1.40
2018-12-09T22:32:54.332Z,1.60
2018-12-09T22:35:32.016Z,2.10
2018-12-09T22:38:09.903Z,1.50
2018-12-09T22:40:41.516Z,1.50
2018-12-09T22:43:17.904Z,1.20
2018-12-09T22:46:00.176Z,1.50
2018-12-09T22:48:37.804Z,1.67
2018-12-09T22:54:02.197Z,1.27
2018-12-09T22:56:34.380Z,1.23
2018-12-09T22:59:14.841Z,1.57
2018-12-09T23:01:50.728Z,1.50
2018-12-09T23:04:22.609Z,1.53
2018-12-09T23:07:01.031Z,1.60
2018-12-09T23:09:34.769Z,1.80
2018-12-09T23:12:06.407Z,1.50
2018-12-09T23:14:41.128Z,1.47
2018-12-09T23:17:16.170Z,1.53
2018-12-09T23:19:48.323Z,2.00
2018-12-09T23:22:20.793Z,2.07
2018-12-09T23:24:51.307Z,1.53
2018-12-09T23:27:25.328Z,1.27
2018-12-09T23:29:56.871Z,1.90
2018-12-09T23:38:25.879Z,1.87
2018-12-09T23:41:02.397Z,1.80
2018-12-09T23:43:34.003Z,1.53
2018-12-09T23:46:06.090Z,1.83
2018-12-09T23:48:42.907Z,1.47
2018-12-09T23:51:14.395Z,1.77
2018-12-09T23:53:54.941Z,1.60
2018-12-09T23:56:29.520Z,1.67
2018-12-09T23:59:06.251Z,1.60
